sensor_id;sensor_type;location;lat;lon;timestamp;pressure;altitude;pressure_sealevel;temperature;humidity
34742;BME280;20968;42.696;23.360;2023-06-22T00:01:42;95634.25;;;22.12;64.49
34742;BME280;20968;42.696;23.360;2023-06-22T00:04:08;95634.69;;;22.16;64.56
34742;BME280;20968;42.696;23.360;2023-06-22T00:06:35;95634.53;;;22.21;64.44
34742;BME280;20968;42.696;23.360;2023-06-22T00:09:00;95637.50;;;22.16;64.71
34742;BME280;20968;42.696;23.360;2023-06-22T00:11:26;95629.47;;;22.20;65.04
34742;BME280;20968;42.696;23.360;2023-06-22T00:13:54;95640.16;;;22.21;64.86
34742;BME280;20968;42.696;23.360;2023-06-22T00:16:21;95631.09;;;22.15;64.82
34742;BME280;20968;42.696;23.360;2023-06-22T00:18:47;95628.41;;;22.10;64.63
34742;BME280;20968;42.696;23.360;2023-06-22T00:21:14;95630.69;;;22.11;64.86
34742;BME280;20968;42.696;23.360;2023-06-22T00:23:39;95621.72;;;22.13;64.86
34742;BME280;20968;42.696;23.360;2023-06-22T00:26:05;95621.19;;;22.14;65.20
34742;BME280;20968;42.696;23.360;2023-06-22T00:28:30;95606.75;;;22.10;65.39
34742;BME280;20968;42.696;23.360;2023-06-22T00:30:55;95602.09;;;22.13;65.38
34742;BME280;20968;42.696;23.360;2023-06-22T00:33:21;95597.25;;;22.13;65.55
34742;BME280;20968;42.696;23.360;2023-06-22T00:35:46;95605.09;;;22.15;65.31
34742;BME280;20968;42.696;23.360;2023-06-22T00:38:12;95604.91;;;22.13;65.42
34742;BME280;20968;42.696;23.360;2023-06-22T00:40:37;95613.97;;;22.06;65.46
34742;BME280;20968;42.696;23.360;2023-06-22T00:43:04;95611.06;;;21.98;65.92
34742;BME280;20968;42.696;23.360;2023-06-22T00:45:30;95607.72;;;22.00;65.24
34742;BME280;20968;42.696;23.360;2023-06-22T00:47:58;95611.84;;;21.99;65.55
34742;BME280;20968;42.696;23.360;2023-06-22T00:50:26;95613.34;;;22.00;65.37
34742;BME280;20968;42.696;23.360;2023-06-22T00:52:57;95609.59;;;21.97;65.42
34742;BME280;20968;42.696;23.360;2023-06-22T00:55:24;95613.13;;;21.98;65.53
34742;BME280;20968;42.696;23.360;2023-06-22T00:57:51;95609.47;;;21.90;65.92
34742;BME280;20968;42.696;23.360;2023-06-22T01:00:20;95606.44;;;21.88;65.67
34742;BME280;20968;42.696;23.360;2023-06-22T01:02:46;95612.28;;;21.90;65.69
34742;BME280;20968;42.696;23.360;2023-06-22T01:05:21;95622.22;;;21.91;66.06
34742;BME280;20968;42.696;23.360;2023-06-22T01:16:20;95624.16;;;21.83;66.55
34742;BME280;20968;42.696;23.360;2023-06-22T01:21:51;95628.91;;;21.75;66.13
34742;BME280;20968;42.696;23.360;2023-06-22T01:30:49;95628.69;;;21.73;66.93
34742;BME280;20968;42.696;23.360;2023-06-22T01:33:29;95625.03;;;21.65;67.05
34742;BME280;20968;42.696;23.360;2023-06-22T01:35:54;95617.91;;;21.64;67.03
34742;BME280;20968;42.696;23.360;2023-06-22T01:38:20;95643.03;;;21.70;66.65
34742;BME280;20968;42.696;23.360;2023-06-22T01:40:48;95630.31;;;21.56;66.70
34742;BME280;20968;42.696;23.360;2023-06-22T01:43:14;95632.56;;;21.57;66.57
34742;BME280;20968;42.696;23.360;2023-06-22T01:45:39;95635.91;;;21.56;66.84
34742;BME280;20968;42.696;23.360;2023-06-22T01:48:05;95632.88;;;21.54;66.56
34742;BME280;20968;42.696;23.360;2023-06-22T01:50:31;95633.88;;;21.56;67.02
34742;BME280;20968;42.696;23.360;2023-06-22T01:52:56;95638.84;;;21.63;67.33
34742;BME280;20968;42.696;23.360;2023-06-22T01:55:22;95643.13;;;21.64;67.26
34742;BME280;20968;42.696;23.360;2023-06-22T01:57:47;95643.47;;;21.61;66.98
34742;BME280;20968;42.696;23.360;2023-06-22T02:00:18;95641.53;;;21.56;67.40
34742;BME280;20968;42.696;23.360;2023-06-22T02:05:16;95655.63;;;21.50;67.23
34742;BME280;20968;42.696;23.360;2023-06-22T02:07:52;95654.56;;;21.53;67.24
34742;BME280;20968;42.696;23.360;2023-06-22T02:10:20;95653.69;;;21.45;66.90
34742;BME280;20968;42.696;23.360;2023-06-22T02:12:47;95655.53;;;21.43;67.07
34742;BME280;20968;42.696;23.360;2023-06-22T02:15:17;95648.94;;;21.40;66.04
34742;BME280;20968;42.696;23.360;2023-06-22T02:17:42;95641.91;;;21.34;66.50
34742;BME280;20968;42.696;23.360;2023-06-22T02:20:16;95650.97;;;21.40;66.92
34742;BME280;20968;42.696;23.360;2023-06-22T02:22:42;95649.91;;;21.43;66.73
34742;BME280;20968;42.696;23.360;2023-06-22T02:25:16;95652.06;;;21.37;67.12
34742;BME280;20968;42.696;23.360;2023-06-22T02:28:05;95646.56;;;21.31;67.36
34742;BME280;20968;42.696;23.360;2023-06-22T02:30:31;95645.47;;;21.21;67.23
34742;BME280;20968;42.696;23.360;2023-06-22T02:32:56;95636.63;;;21.17;67.56
34742;BME280;20968;42.696;23.360;2023-06-22T02:35:26;95631.22;;;21.19;67.20
34742;BME280;20968;42.696;23.360;2023-06-22T02:37:51;95637.81;;;21.22;67.42
34742;BME280;20968;42.696;23.360;2023-06-22T02:40:17;95630.78;;;21.15;67.46
34742;BME280;20968;42.696;23.360;2023-06-22T02:42:43;95638.66;;;21.17;67.26
34742;BME280;20968;42.696;23.360;2023-06-22T02:45:09;95640.63;;;21.22;67.26
34742;BME280;20968;42.696;23.360;2023-06-22T02:47:34;95645.13;;;21.25;67.21
34742;BME280;20968;42.696;23.360;2023-06-22T02:50:00;95639.75;;;21.27;66.79
34742;BME280;20968;42.696;23.360;2023-06-22T02:52:25;95646.53;;;21.18;66.46
34742;BME280;20968;42.696;23.360;2023-06-22T02:54:51;95655.69;;;21.19;66.38
34742;BME280;20968;42.696;23.360;2023-06-22T02:57:17;95649.34;;;21.18;66.29
34742;BME280;20968;42.696;23.360;2023-06-22T02:59:42;95648.91;;;21.14;66.48
34742;BME280;20968;42.696;23.360;2023-06-22T03:02:11;95656.97;;;21.18;66.50
34742;BME280;20968;42.696;23.360;2023-06-22T03:04:37;95652.66;;;21.04;66.84
34742;BME280;20968;42.696;23.360;2023-06-22T03:07:02;95657.78;;;21.00;67.25
34742;BME280;20968;42.696;23.360;2023-06-22T03:09:28;95646.16;;;20.96;67.58
34742;BME280;20968;42.696;23.360;2023-06-22T03:11:54;95652.97;;;21.01;67.59
34742;BME280;20968;42.696;23.360;2023-06-22T03:14:20;95667.94;;;21.03;67.79
34742;BME280;20968;42.696;23.360;2023-06-22T03:16:45;95669.78;;;21.13;67.72
34742;BME280;20968;42.696;23.360;2023-06-22T03:19:11;95669.16;;;21.20;67.38
34742;BME280;20968;42.696;23.360;2023-06-22T03:21:37;95679.84;;;21.22;68.21
34742;BME280;20968;42.696;23.360;2023-06-22T03:24:06;95681.13;;;21.21;68.35
34742;BME280;20968;42.696;23.360;2023-06-22T03:26:32;95689.97;;;21.25;68.00
34742;BME280;20968;42.696;23.360;2023-06-22T03:29:18;95683.63;;;21.24;67.76
34742;BME280;20968;42.696;23.360;2023-06-22T03:32:07;95682.03;;;21.29;67.65
34742;BME280;20968;42.696;23.360;2023-06-22T03:34:32;95681.03;;;21.26;67.88
34742;BME280;20968;42.696;23.360;2023-06-22T03:36:59;95679.41;;;21.18;67.07
34742;BME280;20968;42.696;23.360;2023-06-22T03:39:25;95676.06;;;21.19;66.65
34742;BME280;20968;42.696;23.360;2023-06-22T03:41:50;95688.91;;;20.97;66.81
34742;BME280;20968;42.696;23.360;2023-06-22T03:44:16;95698.47;;;20.88;67.65
34742;BME280;20968;42.696;23.360;2023-06-22T03:46:41;95694.63;;;20.91;67.69
34742;BME280;20968;42.696;23.360;2023-06-22T03:49:07;95690.44;;;20.98;68.28
34742;BME280;20968;42.696;23.360;2023-06-22T03:51:32;95687.88;;;21.00;68.18
34742;BME280;20968;42.696;23.360;2023-06-22T03:53:58;95694.09;;;20.93;68.17
34742;BME280;20968;42.696;23.360;2023-06-22T03:56:23;95709.75;;;20.83;68.86
34742;BME280;20968;42.696;23.360;2023-06-22T03:58:54;95696.53;;;20.65;69.36
34742;BME280;20968;42.696;23.360;2023-06-22T04:01:20;95702.34;;;20.67;69.83
34742;BME280;20968;42.696;23.360;2023-06-22T04:03:46;95707.03;;;20.59;69.12
34742;BME280;20968;42.696;23.360;2023-06-22T04:06:13;95699.88;;;20.45;69.60
34742;BME280;20968;42.696;23.360;2023-06-22T04:08:39;95710.53;;;20.28;69.79
34742;BME280;20968;42.696;23.360;2023-06-22T04:11:04;95703.44;;;20.27;70.29
34742;BME280;20968;42.696;23.360;2023-06-22T04:13:45;95701.31;;;20.33;70.36
34742;BME280;20968;42.696;23.360;2023-06-22T04:16:11;95689.50;;;20.40;69.98
34742;BME280;20968;42.696;23.360;2023-06-22T04:18:36;95696.00;;;20.48;70.21
34742;BME280;20968;42.696;23.360;2023-06-22T04:21:02;95695.09;;;20.58;69.80
34742;BME280;20968;42.696;23.360;2023-06-22T04:23:28;95682.44;;;20.70;69.29
34742;BME280;20968;42.696;23.360;2023-06-22T04:25:53;95669.03;;;20.82;69.51
34742;BME280;20968;42.696;23.360;2023-06-22T04:28:19;95670.41;;;20.94;68.17
34742;BME280;20968;42.696;23.360;2023-06-22T04:30:44;95676.47;;;21.11;68.00
34742;BME280;20968;42.696;23.360;2023-06-22T04:33:15;95671.53;;;21.16;67.97
34742;BME280;20968;42.696;23.360;2023-06-22T04:35:41;95678.03;;;21.24;67.16
34742;BME280;20968;42.696;23.360;2023-06-22T04:38:07;95678.13;;;21.32;67.61
34742;BME280;20968;42.696;23.360;2023-06-22T04:40:33;95681.25;;;21.41;67.43
34742;BME280;20968;42.696;23.360;2023-06-22T04:43:01;95672.00;;;21.46;67.50
34742;BME280;20968;42.696;23.360;2023-06-22T04:45:30;95680.09;;;21.50;67.38
34742;BME280;20968;42.696;23.360;2023-06-22T04:47:56;95681.66;;;21.64;66.75
34742;BME280;20968;42.696;23.360;2023-06-22T04:50:21;95676.91;;;21.72;66.74
34742;BME280;20968;42.696;23.360;2023-06-22T04:52:49;95689.31;;;21.76;66.51
34742;BME280;20968;42.696;23.360;2023-06-22T04:55:14;95696.00;;;21.73;66.54
34742;BME280;20968;42.696;23.360;2023-06-22T04:57:44;95704.75;;;21.83;66.96
34742;BME280;20968;42.696;23.360;2023-06-22T05:00:20;95700.31;;;22.00;66.12
34742;BME280;20968;42.696;23.360;2023-06-22T05:03:02;95694.59;;;22.05;65.55
34742;BME280;20968;42.696;23.360;2023-06-22T05:05:29;95699.03;;;22.01;66.17
34742;BME280;20968;42.696;23.360;2023-06-22T05:07:56;95694.59;;;22.05;65.47
34742;BME280;20968;42.696;23.360;2023-06-22T05:10:25;95694.81;;;22.20;64.33
34742;BME280;20968;42.696;23.360;2023-06-22T05:12:51;95699.88;;;22.22;64.54
34742;BME280;20968;42.696;23.360;2023-06-22T05:15:16;95682.50;;;22.36;64.22
34742;BME280;20968;42.696;23.360;2023-06-22T05:17:44;95688.84;;;22.37;63.73
34742;BME280;20968;42.696;23.360;2023-06-22T05:20:12;95697.78;;;22.48;63.18
34742;BME280;20968;42.696;23.360;2023-06-22T05:22:38;95696.16;;;22.53;63.52
34742;BME280;20968;42.696;23.360;2023-06-22T05:25:07;95704.75;;;22.68;63.01
34742;BME280;20968;42.696;23.360;2023-06-22T05:27:33;95716.84;;;22.75;62.76
34742;BME280;20968;42.696;23.360;2023-06-22T05:30:01;95705.53;;;22.88;62.38
34742;BME280;20968;42.696;23.360;2023-06-22T05:32:27;95708.44;;;22.96;62.05
34742;BME280;20968;42.696;23.360;2023-06-22T05:34:52;95709.13;;;22.89;62.97
34742;BME280;20968;42.696;23.360;2023-06-22T05:37:17;95709.72;;;22.74;62.48
34742;BME280;20968;42.696;23.360;2023-06-22T05:39:43;95711.28;;;22.83;62.63
34742;BME280;20968;42.696;23.360;2023-06-22T05:42:09;95720.91;;;22.87;63.08
34742;BME280;20968;42.696;23.360;2023-06-22T05:44:34;95734.81;;;22.93;62.70
34742;BME280;20968;42.696;23.360;2023-06-22T05:47:00;95734.34;;;23.02;62.88
34742;BME280;20968;42.696;23.360;2023-06-22T05:49:25;95736.41;;;23.14;60.48
34742;BME280;20968;42.696;23.360;2023-06-22T05:51:57;95732.56;;;23.25;60.85
34742;BME280;20968;42.696;23.360;2023-06-22T05:54:23;95731.66;;;23.30;60.77
34742;BME280;20968;42.696;23.360;2023-06-22T05:56:48;95725.00;;;23.40;60.26
34742;BME280;20968;42.696;23.360;2023-06-22T05:59:14;95731.59;;;23.43;59.79
34742;BME280;20968;42.696;23.360;2023-06-22T06:01:39;95718.63;;;23.40;61.86
34742;BME280;20968;42.696;23.360;2023-06-22T06:04:05;95720.16;;;23.41;61.17
34742;BME280;20968;42.696;23.360;2023-06-22T06:06:33;95728.09;;;23.50;60.19
34742;BME280;20968;42.696;23.360;2023-06-22T06:09:00;95722.59;;;23.64;59.72
34742;BME280;20968;42.696;23.360;2023-06-22T06:11:25;95720.06;;;23.74;58.99
34742;BME280;20968;42.696;23.360;2023-06-22T06:13:51;95712.28;;;23.87;59.08
34742;BME280;20968;42.696;23.360;2023-06-22T06:16:17;95714.59;;;23.96;59.37
34742;BME280;20968;42.696;23.360;2023-06-22T06:18:42;95712.75;;;23.99;58.50
34742;BME280;20968;42.696;23.360;2023-06-22T06:21:07;95726.47;;;24.02;60.12
34742;BME280;20968;42.696;23.360;2023-06-22T06:23:33;95724.28;;;24.16;60.46
34742;BME280;20968;42.696;23.360;2023-06-22T06:25:58;95708.91;;;24.17;60.31
34742;BME280;20968;42.696;23.360;2023-06-22T06:28:24;95715.91;;;24.31;60.14
34742;BME280;20968;42.696;23.360;2023-06-22T06:30:50;95710.28;;;24.31;60.55
34742;BME280;20968;42.696;23.360;2023-06-22T06:33:17;95714.44;;;24.37;60.21
34742;BME280;20968;42.696;23.360;2023-06-22T06:35:42;95709.97;;;24.41;58.94
34742;BME280;20968;42.696;23.360;2023-06-22T06:38:08;95708.22;;;24.66;59.07
34742;BME280;20968;42.696;23.360;2023-06-22T06:40:33;95705.63;;;24.83;58.40
34742;BME280;20968;42.696;23.360;2023-06-22T06:42:58;95698.19;;;25.01;59.73
34742;BME280;20968;42.696;23.360;2023-06-22T06:45:25;95696.34;;;25.18;57.76
34742;BME280;20968;42.696;23.360;2023-06-22T06:47:55;95696.72;;;25.22;56.80
34742;BME280;20968;42.696;23.360;2023-06-22T06:50:21;95704.28;;;25.34;57.55
34742;BME280;20968;42.696;23.360;2023-06-22T06:52:46;95688.78;;;24.98;57.50
34742;BME280;20968;42.696;23.360;2023-06-22T06:55:12;95685.56;;;24.87;57.71
34742;BME280;20968;42.696;23.360;2023-06-22T06:57:38;95677.25;;;24.74;58.08
34742;BME280;20968;42.696;23.360;2023-06-22T07:00:11;95689.66;;;24.78;59.63
34742;BME280;20968;42.696;23.360;2023-06-22T07:02:42;95689.09;;;24.72;58.45
34742;BME280;20968;42.696;23.360;2023-06-22T07:05:08;95686.63;;;24.76;58.75
34742;BME280;20968;42.696;23.360;2023-06-22T07:07:34;95684.22;;;24.80;59.47
34742;BME280;20968;42.696;23.360;2023-06-22T07:10:00;95686.13;;;24.93;59.37
34742;BME280;20968;42.696;23.360;2023-06-22T07:12:25;95695.78;;;25.12;60.14
34742;BME280;20968;42.696;23.360;2023-06-22T07:14:52;95690.72;;;25.33;58.57
34742;BME280;20968;42.696;23.360;2023-06-22T07:17:18;95686.78;;;25.58;58.00
34742;BME280;20968;42.696;23.360;2023-06-22T07:19:43;95693.19;;;25.89;58.48
34742;BME280;20968;42.696;23.360;2023-06-22T07:22:09;95696.34;;;26.07;57.59
34742;BME280;20968;42.696;23.360;2023-06-22T07:24:34;95692.03;;;26.14;56.53
34742;BME280;20968;42.696;23.360;2023-06-22T07:26:59;95689.91;;;26.29;54.39
34742;BME280;20968;42.696;23.360;2023-06-22T07:29:25;95695.19;;;26.40;55.88
34742;BME280;20968;42.696;23.360;2023-06-22T07:31:52;95693.56;;;26.69;54.57
34742;BME280;20968;42.696;23.360;2023-06-22T07:34:17;95696.88;;;26.82;53.72
34742;BME280;20968;42.696;23.360;2023-06-22T07:36:44;95693.44;;;26.91;55.41
34742;BME280;20968;42.696;23.360;2023-06-22T07:39:09;95709.00;;;27.07;54.17
34742;BME280;20968;42.696;23.360;2023-06-22T07:41:35;95709.41;;;27.04;52.96
34742;BME280;20968;42.696;23.360;2023-06-22T07:44:02;95697.97;;;27.26;53.03
34742;BME280;20968;42.696;23.360;2023-06-22T07:46:28;95709.19;;;27.41;52.71
34742;BME280;20968;42.696;23.360;2023-06-22T07:48:55;95700.91;;;27.67;53.09
34742;BME280;20968;42.696;23.360;2023-06-22T07:51:21;95700.03;;;27.82;50.47
34742;BME280;20968;42.696;23.360;2023-06-22T07:53:46;95699.50;;;27.76;50.83
34742;BME280;20968;42.696;23.360;2023-06-22T07:56:12;95689.94;;;27.88;51.40
34742;BME280;20968;42.696;23.360;2023-06-22T07:58:37;95691.44;;;27.89;51.99
34742;BME280;20968;42.696;23.360;2023-06-22T08:01:03;95689.56;;;28.09;50.47
34742;BME280;20968;42.696;23.360;2023-06-22T08:03:29;95686.66;;;27.99;51.53
34742;BME280;20968;42.696;23.360;2023-06-22T08:05:54;95679.56;;;28.08;51.23
34742;BME280;20968;42.696;23.360;2023-06-22T08:08:20;95678.59;;;28.13;50.37
34742;BME280;20968;42.696;23.360;2023-06-22T08:10:45;95678.44;;;28.28;50.34
34742;BME280;20968;42.696;23.360;2023-06-22T08:13:11;95672.34;;;28.48;50.43
34742;BME280;20968;42.696;23.360;2023-06-22T08:15:36;95674.66;;;28.59;51.82
34742;BME280;20968;42.696;23.360;2023-06-22T08:18:02;95662.06;;;28.86;50.26
34742;BME280;20968;42.696;23.360;2023-06-22T08:20:27;95665.19;;;28.90;49.86
34742;BME280;20968;42.696;23.360;2023-06-22T08:22:54;95660.88;;;28.89;48.85
34742;BME280;20968;42.696;23.360;2023-06-22T08:25:20;95660.94;;;28.99;48.81
34742;BME280;20968;42.696;23.360;2023-06-22T08:27:47;95660.81;;;29.06;48.97
34742;BME280;20968;42.696;23.360;2023-06-22T08:30:14;95662.34;;;29.17;47.39
34742;BME280;20968;42.696;23.360;2023-06-22T08:32:39;95657.50;;;29.26;48.02
34742;BME280;20968;42.696;23.360;2023-06-22T08:35:05;95649.38;;;29.14;47.21
34742;BME280;20968;42.696;23.360;2023-06-22T08:37:33;95655.78;;;29.14;48.63
34742;BME280;20968;42.696;23.360;2023-06-22T08:40:01;95669.84;;;29.12;49.01
34742;BME280;20968;42.696;23.360;2023-06-22T08:42:29;95663.09;;;29.08;49.85
34742;BME280;20968;42.696;23.360;2023-06-22T08:44:55;95666.50;;;29.06;50.48
34742;BME280;20968;42.696;23.360;2023-06-22T08:47:20;95666.88;;;28.93;50.84
34742;BME280;20968;42.696;23.360;2023-06-22T08:49:46;95662.22;;;28.88;50.28
34742;BME280;20968;42.696;23.360;2023-06-22T08:52:12;95656.59;;;28.98;50.42
34742;BME280;20968;42.696;23.360;2023-06-22T08:54:38;95661.22;;;29.29;50.46
34742;BME280;20968;42.696;23.360;2023-06-22T08:57:03;95646.53;;;29.40;49.29
34742;BME280;20968;42.696;23.360;2023-06-22T08:59:29;95658.25;;;29.53;50.92
34742;BME280;20968;42.696;23.360;2023-06-22T09:04:29;95636.72;;;29.60;48.91
34742;BME280;20968;42.696;23.360;2023-06-22T09:06:55;95646.03;;;29.79;48.83
34742;BME280;20968;42.696;23.360;2023-06-22T09:09:21;95642.25;;;30.03;47.95
34742;BME280;20968;42.696;23.360;2023-06-22T09:11:46;95649.28;;;30.11;48.99
34742;BME280;20968;42.696;23.360;2023-06-22T09:14:12;95647.34;;;30.33;48.08
34742;BME280;20968;42.696;23.360;2023-06-22T09:16:38;95641.38;;;30.48;48.25
34742;BME280;20968;42.696;23.360;2023-06-22T09:19:03;95644.22;;;30.57;44.51
34742;BME280;20968;42.696;23.360;2023-06-22T09:21:29;95646.94;;;30.55;43.96
34742;BME280;20968;42.696;23.360;2023-06-22T09:23:55;95647.84;;;30.58;43.54
34742;BME280;20968;42.696;23.360;2023-06-22T09:26:21;95644.53;;;30.61;42.39
34742;BME280;20968;42.696;23.360;2023-06-22T09:28:47;95651.56;;;30.41;44.18
34742;BME280;20968;42.696;23.360;2023-06-22T09:31:13;95646.94;;;30.65;45.60
34742;BME280;20968;42.696;23.360;2023-06-22T09:33:40;95648.84;;;30.81;46.52
34742;BME280;20968;42.696;23.360;2023-06-22T09:36:06;95651.50;;;30.98;46.08
34742;BME280;20968;42.696;23.360;2023-06-22T09:38:36;95648.81;;;31.09;46.94
34742;BME280;20968;42.696;23.360;2023-06-22T09:41:01;95648.38;;;30.94;44.74
34742;BME280;20968;42.696;23.360;2023-06-22T09:43:27;95647.00;;;31.14;44.61
34742;BME280;20968;42.696;23.360;2023-06-22T09:45:53;95646.81;;;31.21;44.23
34742;BME280;20968;42.696;23.360;2023-06-22T09:48:18;95640.69;;;31.25;40.80
34742;BME280;20968;42.696;23.360;2023-06-22T09:50:44;95636.34;;;31.24;41.72
34742;BME280;20968;42.696;23.360;2023-06-22T09:53:09;95626.75;;;31.19;43.91
34742;BME280;20968;42.696;23.360;2023-06-22T09:55:35;95632.25;;;31.36;44.46
34742;BME280;20968;42.696;23.360;2023-06-22T09:58:00;95630.09;;;31.46;42.35
34742;BME280;20968;42.696;23.360;2023-06-22T10:00:26;95629.50;;;31.57;41.37
34742;BME280;20968;42.696;23.360;2023-06-22T10:02:54;95622.38;;;31.67;41.29
34742;BME280;20968;42.696;23.360;2023-06-22T10:05:21;95622.94;;;31.75;41.40
34742;BME280;20968;42.696;23.360;2023-06-22T10:07:47;95627.47;;;31.69;42.62
34742;BME280;20968;42.696;23.360;2023-06-22T10:10:12;95627.22;;;31.86;39.99
34742;BME280;20968;42.696;23.360;2023-06-22T10:12:43;95619.91;;;32.04;39.96
34742;BME280;20968;42.696;23.360;2023-06-22T10:15:10;95616.53;;;32.17;39.60
34742;BME280;20968;42.696;23.360;2023-06-22T10:17:35;95615.97;;;32.30;40.81
34742;BME280;20968;42.696;23.360;2023-06-22T10:20:00;95619.13;;;32.34;41.63
34742;BME280;20968;42.696;23.360;2023-06-22T10:22:31;95615.16;;;32.39;38.99
34742;BME280;20968;42.696;23.360;2023-06-22T10:24:56;95608.34;;;32.43;37.81
34742;BME280;20968;42.696;23.360;2023-06-22T10:27:22;95615.44;;;32.43;38.39
34742;BME280;20968;42.696;23.360;2023-06-22T10:29:47;95608.00;;;32.49;38.93
34742;BME280;20968;42.696;23.360;2023-06-22T10:32:12;95606.47;;;32.57;37.81
34742;BME280;20968;42.696;23.360;2023-06-22T10:34:38;95607.00;;;32.44;37.27
34742;BME280;20968;42.696;23.360;2023-06-22T10:37:03;95611.91;;;32.33;38.72
34742;BME280;20968;42.696;23.360;2023-06-22T10:39:29;95601.63;;;32.39;39.74
34742;BME280;20968;42.696;23.360;2023-06-22T10:41:54;95601.81;;;32.52;39.04
34742;BME280;20968;42.696;23.360;2023-06-22T10:44:21;95589.22;;;32.35;39.27
34742;BME280;20968;42.696;23.360;2023-06-22T10:46:46;95596.06;;;32.41;40.43
34742;BME280;20968;42.696;23.360;2023-06-22T10:49:12;95588.31;;;32.32;39.07
34742;BME280;20968;42.696;23.360;2023-06-22T10:51:37;95585.22;;;32.28;37.57
34742;BME280;20968;42.696;23.360;2023-06-22T10:54:03;95593.16;;;32.30;37.65
34742;BME280;20968;42.696;23.360;2023-06-22T10:56:32;95585.31;;;32.19;37.29
34742;BME280;20968;42.696;23.360;2023-06-22T10:58:59;95592.34;;;32.39;37.02
34742;BME280;20968;42.696;23.360;2023-06-22T11:01:24;95581.44;;;32.46;39.54
34742;BME280;20968;42.696;23.360;2023-06-22T11:03:49;95586.53;;;32.48;39.30
34742;BME280;20968;42.696;23.360;2023-06-22T11:06:15;95592.19;;;32.37;39.25
34742;BME280;20968;42.696;23.360;2023-06-22T11:08:44;95580.25;;;32.29;40.19
34742;BME280;20968;42.696;23.360;2023-06-22T11:11:09;95583.28;;;32.42;40.14
34742;BME280;20968;42.696;23.360;2023-06-22T11:13:35;95579.69;;;32.42;39.38
34742;BME280;20968;42.696;23.360;2023-06-22T11:16:00;95583.53;;;32.67;40.36
34742;BME280;20968;42.696;23.360;2023-06-22T11:18:25;95574.91;;;32.88;39.54
34742;BME280;20968;42.696;23.360;2023-06-22T11:20:51;95579.78;;;32.97;40.40
34742;BME280;20968;42.696;23.360;2023-06-22T11:23:16;95568.72;;;33.03;39.14
34742;BME280;20968;42.696;23.360;2023-06-22T11:25:42;95565.28;;;33.27;37.54
34742;BME280;20968;42.696;23.360;2023-06-22T11:28:08;95577.47;;;33.39;38.63
34742;BME280;20968;42.696;23.360;2023-06-22T11:30:33;95566.28;;;33.31;39.25
34742;BME280;20968;42.696;23.360;2023-06-22T11:32:59;95563.06;;;33.37;38.24
34742;BME280;20968;42.696;23.360;2023-06-22T11:35:25;95565.91;;;33.14;38.07
34742;BME280;20968;42.696;23.360;2023-06-22T11:37:51;95559.25;;;32.89;38.43
34742;BME280;20968;42.696;23.360;2023-06-22T11:40:16;95560.84;;;32.48;38.96
34742;BME280;20968;42.696;23.360;2023-06-22T11:42:43;95569.13;;;32.33;38.69
34742;BME280;20968;42.696;23.360;2023-06-22T11:45:09;95561.47;;;32.14;38.09
34742;BME280;20968;42.696;23.360;2023-06-22T11:47:35;95553.94;;;32.19;37.87
34742;BME280;20968;42.696;23.360;2023-06-22T11:50:02;95557.69;;;32.33;41.64
34742;BME280;20968;42.696;23.360;2023-06-22T11:52:27;95547.00;;;32.54;39.37
34742;BME280;20968;42.696;23.360;2023-06-22T11:54:52;95540.38;;;32.51;37.43
34742;BME280;20968;42.696;23.360;2023-06-22T11:57:18;95538.75;;;32.81;39.06
34742;BME280;20968;42.696;23.360;2023-06-22T11:59:43;95541.44;;;32.67;39.17
34742;BME280;20968;42.696;23.360;2023-06-22T12:02:09;95544.22;;;32.44;39.17
34742;BME280;20968;42.696;23.360;2023-06-22T12:04:34;95542.03;;;32.22;38.26
34742;BME280;20968;42.696;23.360;2023-06-22T12:07:00;95545.91;;;32.06;38.17
34742;BME280;20968;42.696;23.360;2023-06-22T12:09:25;95542.72;;;32.11;39.65
34742;BME280;20968;42.696;23.360;2023-06-22T12:11:51;95538.50;;;31.91;40.27
34742;BME280;20968;42.696;23.360;2023-06-22T12:14:16;95548.06;;;31.75;41.60
34742;BME280;20968;42.696;23.360;2023-06-22T12:16:42;95554.94;;;31.61;41.95
34742;BME280;20968;42.696;23.360;2023-06-22T12:19:09;95566.75;;;31.36;41.31
34742;BME280;20968;42.696;23.360;2023-06-22T12:21:34;95555.28;;;31.15;43.70
34742;BME280;20968;42.696;23.360;2023-06-22T12:24:00;95570.94;;;30.86;43.95
34742;BME280;20968;42.696;23.360;2023-06-22T12:26:25;95570.25;;;30.67;43.80
34742;BME280;20968;42.696;23.360;2023-06-22T12:28:50;95579.84;;;30.43;44.52
34742;BME280;20968;42.696;23.360;2023-06-22T12:31:16;95586.59;;;30.19;44.55
34742;BME280;20968;42.696;23.360;2023-06-22T12:33:42;95585.94;;;29.83;45.12
34742;BME280;20968;42.696;23.360;2023-06-22T12:36:07;95593.78;;;29.46;48.22
34742;BME280;20968;42.696;23.360;2023-06-22T12:38:33;95597.91;;;29.00;50.36
34742;BME280;20968;42.696;23.360;2023-06-22T12:40:58;95589.53;;;28.49;52.88
34742;BME280;20968;42.696;23.360;2023-06-22T12:43:24;95587.81;;;28.20;53.87
34742;BME280;20968;42.696;23.360;2023-06-22T12:45:49;95579.47;;;27.88;54.69
34742;BME280;20968;42.696;23.360;2023-06-22T12:48:14;95588.13;;;27.73;55.56
34742;BME280;20968;42.696;23.360;2023-06-22T12:50:40;95593.78;;;27.73;55.52
34742;BME280;20968;42.696;23.360;2023-06-22T12:53:05;95607.69;;;27.62;55.22
34742;BME280;20968;42.696;23.360;2023-06-22T12:55:31;95622.72;;;27.48;54.74
34742;BME280;20968;42.696;23.360;2023-06-22T12:57:57;95620.97;;;27.28;54.45
34742;BME280;20968;42.696;23.360;2023-06-22T13:00:22;95616.59;;;27.10;55.41
34742;BME280;20968;42.696;23.360;2023-06-22T13:02:48;95619.47;;;27.02;56.34
34742;BME280;20968;42.696;23.360;2023-06-22T13:05:13;95626.94;;;26.83;57.03
34742;BME280;20968;42.696;23.360;2023-06-22T13:07:39;95628.25;;;26.82;57.96
34742;BME280;20968;42.696;23.360;2023-06-22T13:10:04;95616.91;;;26.89;58.75